Flight Track Log - Related Links

Times and Time Zones

All times are in EDT time to prevent confusion due to time zone crossing. See the N400DR flight status page for this flight to view local times or setup timezone preferences in your user account.

Time Position Orientation Groundspeed Altitude Reporting Facility
EDT Latitude Longitude Course Direction KTS MPH feet Rate Location/Type
Tue 07:29:08 AM 40.9475 -81.5103 261° West 148 170 3,600  Level Cleveland Center
Tue 07:30:09 AM 40.9250 -81.5533 235° Southwest 143 165 4,700 1,024 Climbing Cleveland Center
Tue 07:31:11 AM 40.9058 -81.5989 241° Southwest 163 188 5,700 968 Climbing Cleveland Center
Tue 07:32:13 AM 40.9044 -81.6519 268° West 150 173 6,700 976 Climbing Cleveland Center
Tue 07:33:00 AM 40.9642 -81.8140 268° West  Level Estimated
Tue 07:33:14 AM 40.9014 -81.7044 266° West 143 165 7,700  Level Cleveland Center
Tue 07:34:00 AM 40.9565 -81.8759 261° West  Level FlightAware
Tue 07:34:16 AM 40.8992 -81.7639 267° West 156 180 8,000  Level Cleveland Center
Tue 07:35:17 AM 40.8975 -81.8311 268° West 177 204 8,000  Level Cleveland Center
Tue 07:36:19 AM 40.8944 -81.9094 267° West 180 207 8,000  Level Cleveland Center
Tue 07:37:20 AM 40.8922 -81.9767 268° West 180 207 8,000  Level Cleveland Center
Tue 07:38:22 AM 40.8886 -82.0414 266° West 177 204 8,000 48 Level Cleveland Center
Tue 07:39:24 AM 40.8867 -82.1075 268° West 178 205 8,100 49 Climbing Cleveland Center
Tue 07:40:25 AM 40.8839 -82.1725 267° West 177 204 8,100  Level Cleveland Center
Tue 07:41:27 AM 40.8819 -82.2372 268° West 174 200 8,100  Level Cleveland Center
Tue 07:42:29 AM 40.8792 -82.3031 267° West 177 204 8,100  Level Cleveland Center
Tue 07:43:30 AM 40.8753 -82.3681 265° West 176 203 8,100  Level Cleveland Center
Tue 07:44:32 AM 40.8736 -82.4333 268° West 177 204 8,100  Level Cleveland Center
Tue 07:45:33 AM 40.8711 -82.4992 267° West 177 204 8,100  Level Cleveland Center
Tue 07:46:35 AM 40.8681 -82.5636 266° West 174 200 8,100  Level Cleveland Center
Tue 07:47:37 AM 40.8708 -82.6397 273° West 175 201 8,100  Level Cleveland Center
Tue 07:48:39 AM 40.8761 -82.7036 276° West 175 201 8,100  Level Cleveland Center
Tue 07:49:40 AM 40.8819 -82.7675 277° West 175 201 8,100 -49 Level Cleveland Center
Tue 07:50:42 AM 40.8864 -82.8317 275° West 174 200 8,000 -48 Descending Cleveland Center
Tue 07:51:44 AM 40.8919 -82.8961 277° West 175 201 8,000  Level Cleveland Center
Tue 07:52:46 AM 40.8967 -82.9600 276° West 174 200 8,000  Level Cleveland Center
Tue 07:53:47 AM 40.9017 -83.0236 276° West 173 199 8,000  Level Cleveland Center
Tue 07:54:49 AM 40.9056 -83.0878 275° West 174 200 8,000  Level Cleveland Center
Tue 07:55:51 AM 40.9117 -83.1531 277° West 177 204 8,000  Level Cleveland Center
Tue 07:56:53 AM 40.9175 -83.2275 276° West 174 200 8,000  Level Cleveland Center
Tue 07:57:55 AM 40.9222 -83.2908 276° West 173 199 8,000  Level Cleveland Center
Tue 07:58:57 AM 40.9261 -83.3553 275° West 174 200 8,000  Level Cleveland Center
Tue 07:59:59 AM 40.9303 -83.4192 275° West 172 198 8,000  Level Cleveland Center
Tue 08:01:01 AM 40.9356 -83.4842 276° West 176 203 8,000  Level Cleveland Center
Tue 08:02:02 AM 40.9397 -83.5489 275° West 176 203 8,000  Level Cleveland Center
Tue 08:03:04 AM 40.9439 -83.6122 275° West 172 198 8,000  Level Cleveland Center
Tue 08:04:06 AM 40.9489 -83.6767 276° West 175 201 8,000  Level Cleveland Center
Tue 08:05:08 AM 40.9539 -83.7506 275° West 172 198 8,000  Level Cleveland Center
Tue 08:06:10 AM 40.9561 -83.8150 273° West 172 198 8,000  Level Cleveland Center
Tue 08:07:12 AM 40.9575 -83.8722 272° West 172 198 8,000  Level Cleveland Center
Tue 08:08:14 AM 40.9597 -83.9375 273° West 176 203 8,000  Level Cleveland Center
Tue 08:09:16 AM 40.9611 -84.0139 271° West 174 200 8,000  Level Cleveland Center
Tue 08:10:18 AM 40.9614 -84.0767 270° West 172 198 8,000  Level Cleveland Center
Tue 08:11:20 AM 40.9625 -84.1400 271° West 173 199 8,000  Level Cleveland Center
Tue 08:12:22 AM 40.9642 -84.2022 272° West 169 194 8,000  Level Cleveland Center
Tue 08:13:24 AM 40.9658 -84.2658 272° West 173 199 8,000  Level Cleveland Center
Tue 08:14:26 AM 40.9672 -84.3278 272° West 171 197 8,000  Level Cleveland Center
Tue 08:15:46 AM 40.9681 -84.4175 271° West 173 199 8,000  Level Chicago Center
Tue 08:16:48 AM 40.9689 -84.4806 271° West 173 199 8,000  Level Chicago Center
Tue 08:17:50 AM 40.9697 -84.5439 271° West 172 198 8,000  Level Chicago Center
Tue 08:18:52 AM 40.9703 -84.6211 271° West 176 203 8,000  Level Chicago Center
Tue 08:19:54 AM 40.9728 -84.6847 273° West 174 200 8,000  Level Chicago Center
Tue 08:20:56 AM 40.9736 -84.7489 271° West 174 200 8,000  Level Chicago Center
Tue 08:21:58 AM 40.9744 -84.8125 271° West 174 200 8,000  Level Chicago Center
Tue 08:23:00 AM 40.9747 -84.8744 270° West 171 197 8,000  Level Chicago Center
Tue 08:24:02 AM 40.9764 -84.9392 272° West 173 199 8,000  Level Chicago Center
Tue 08:25:04 AM 40.9758 -85.0036 269° West 175 201 8,000  Level Chicago Center
Tue 08:26:06 AM 40.9775 -85.0806 272° West 174 200 8,000  Level Chicago Center
Tue 08:27:09 AM 40.9781 -85.1469 271° West 178 205 8,000  Level Chicago Center
Tue 08:28:11 AM 40.9803 -85.2108 273° West 176 203 8,000  Level Chicago Center
Tue 08:29:13 AM 40.9892 -85.2744 281° West 176 203 8,000  Level Chicago Center
Tue 08:30:15 AM 40.9967 -85.3375 279° West 175 201 8,000  Level Chicago Center
Tue 08:31:17 AM 41.0039 -85.4011 279° West 175 201 8,000  Level Chicago Center
Tue 08:32:19 AM 41.0139 -85.4769 280° West 174 200 8,000  Level Chicago Center
Tue 08:33:21 AM 41.0217 -85.5406 279° West 175 201 8,000  Level Chicago Center
Tue 08:34:23 AM 41.0297 -85.6050 279° West 176 203 8,000  Level Chicago Center
Tue 08:35:25 AM 41.0369 -85.6678 279° West 174 200 8,000  Level Chicago Center
Tue 08:36:27 AM 41.0444 -85.7322 279° West 176 203 8,000  Level Chicago Center
Tue 08:37:29 AM 41.0514 -85.7956 278° West 175 201 8,000  Level Chicago Center
Tue 08:38:31 AM 41.0608 -85.8714 279° West 173 199 8,000  Level Chicago Center
Tue 08:39:33 AM 41.0686 -85.9347 279° West 174 200 8,000  Level Chicago Center
Tue 08:40:35 AM 41.0758 -85.9975 279° West 172 198 8,000  Level Chicago Center
Tue 08:41:37 AM 41.0831 -86.0614 279° West 175 201 8,000  Level Chicago Center
Tue 08:42:39 AM 41.0906 -86.1247 279° West 174 200 8,000  Level Chicago Center
Tue 08:43:41 AM 41.0978 -86.1878 279° West 174 200 8,000  Level Chicago Center
Tue 08:44:43 AM 41.1064 -86.2647 278° West 176 203 8,000  Level Chicago Center
Tue 08:45:46 AM 41.1131 -86.3269 278° West 173 199 8,000  Level Chicago Center
Tue 08:46:48 AM 41.1208 -86.3914 279° West 175 201 8,000  Level Chicago Center
Tue 08:47:50 AM 41.1281 -86.4553 279° West 176 203 8,000  Level Chicago Center
Tue 08:48:51 AM 41.1339 -86.5183 277° West 174 200 8,000  Level Chicago Center
Tue 08:49:53 AM 41.1419 -86.5822 280° West 177 204 8,000  Level Chicago Center
Tue 08:50:55 AM 41.1506 -86.6578 279° West 174 200 8,000  Level Chicago Center
Tue 08:51:57 AM 41.1572 -86.7214 278° West 174 200 8,000  Level Chicago Center
Tue 08:52:59 AM 41.1653 -86.7844 280° West 172 198 8,000  Level Chicago Center
Tue 08:54:01 AM 41.1731 -86.8481 279° West 175 201 8,000  Level Chicago Center
Tue 08:55:03 AM 41.1797 -86.9117 278° West 175 201 8,000  Level Chicago Center
Tue 08:56:05 AM 41.1850 -86.9764 276° West 177 204 8,000  Level Chicago Center
Tue 08:57:07 AM 41.1942 -87.0525 279° West 176 203 8,000  Level Chicago Center
Tue 08:58:09 AM 41.2000 -87.1172 277° West 175 201 8,000  Level Chicago Center
Tue 08:59:11 AM 41.2061 -87.1817 277° West 174 200 8,000 -48 Level Chicago Center
Tue 09:00:13 AM 41.2139 -87.2450 279° West 174 200 7,900 -387 Descending Chicago Center
Tue 09:01:15 AM 41.2214 -87.3147 278° West 188 216 7,200 -677 Descending Chicago Center
Tue 09:02:17 AM 41.2292 -87.3897 278° West 198 228 6,500 -726 Descending Chicago Center
Tue 09:03:19 AM 41.2381 -87.4767 278° West 198 228 5,700 -774 Descending Chicago Center
Tue 09:04:21 AM 41.2461 -87.5489 278° West 199 229 4,900 -774 Descending Chicago Center
Tue 09:05:23 AM 41.2536 -87.6222 278° West 200 230 4,100 -435 Descending Chicago Center
Tue 09:06:25 AM 41.2606 -87.6894 278° West 194 223 4,000 -48 Descending Chicago Center
Tue 09:07:27 AM 41.2661 -87.7492 277° West 180 207 4,000  Level Chicago Center
Tue 09:08:29 AM 41.3044 -87.7850 325° Northwest 176 203 4,000  Level Chicago Center
Tue 09:09:30 AM 41.3489 -87.8292 323° Northwest 169 194 4,000  Level Chicago Center
Tue 09:10:32 AM 41.3850 -87.8667 322° Northwest 168 193 4,000  Level Chicago Center
Tue 09:11:34 AM 41.4192 -87.9036 321° Northwest 163 188 4,000 -48 Level Chicago Center
Tue 09:12:36 AM 41.4517 -87.9386 321° Northwest 158 182 3,900 -484 Descending Chicago Center
Tue 09:13:38 AM 41.4961 -87.9878 320° Northwest 170 196 3,000 -581 Descending Chicago Center
Tue 09:14:40 AM 41.5333 -88.0286 321° Northwest 175 201 2,700 -484 Descending Chicago Center
Tue 09:15:42 AM 41.5681 -88.0731 316° Northwest 175 201 2,000 -532 Descending Chicago Center
Tue 09:16:44 AM 41.6083 -88.0764 356° North 157 181 1,600 -435 Descending Chicago Center
Tue 09:17:46 AM 41.6300 -88.0886 337° Northwest 133 153 1,100 -435 Descending Chicago Center
Tue 09:18:48 AM 41.6053 -88.0972 195° South 112 129 700 -387 Descending Chicago Center

Login

Don't have an account? Register now (free) for customized features, flight alerts, and more!